Weather History for Port Lavaca, TX

Change the Weather History Date:

Thursday, October 17, 2013

  Actual Average (KVCT) Record (KVCT)
Temperature  
Mean Temperature 68 °F 72 °F  
Max Temperature 77 °F 83 °F 100 °F (1926)
Min Temperature 60 °F 61 °F 45 °F (2001)
Degree Days  
Heating Degree Days 0 1  
Month to date heating degree days 2  
Since 1 July heating degree days 3  
Cooling Degree Days 3 8  
Month to date cooling degree days 158  
Year to date cooling degree days 2956  
Growing Degree Days 18 (Base 50)    
Moisture  
Dew Point 57 °F    
Average Humidity 71    
Maximum Humidity 88    
Minimum Humidity 51    
Precipitation  
Precipitation 0.00 in 0.17 in 4.18 in (1971)
Month to date precipitation 2.55  
Year to date precipitation 33.58  
Snow  
Snow 0.00 in - - ()
Month to date snowfall  
Since 1 July snowfall  
Since 1 September snowfall  
Snow Depth -    
Sea Level Pressure  
Sea Level Pressure 30.02 in    
Wind  
Wind Speed 9 mph (NNE)    
Max Wind Speed 13 mph    
Max Gust Speed 18 mph    
Visibility 10 miles    
Events      
T = Trace of Precipitation, MM = Missing Value Source: NWS Daily Summary

Daily Weather History Graph

Daily Weather History Graph

Search for Another Location

Airport:

Trip Planner

Search our weather history database for the weather conditions in past years. The results will help you decide how hot, cold, wet, or windy it might be!

Date:

Astronomy

Oct. 17, 2013 Rise Set
Actual Time 7:28 AM CDT 6:54 PM CDT
Civil Twilight 7:05 AM CDT 7:18 PM CDT
Nautical Twilight 6:37 AM CDT 7:45 PM CDT
Astronomical Twilight 6:10 AM CDT 8:13 PM CDT
Moon 6:06 PM CDT (10/17) 6:07 AM CDT (10/17)
Length of Visible Light 12h 13m
Length of Day
11h 25m
Waxing Gibbous, 98% of the Moon is Illuminated
Oct 17
Waxing Gibbous
Oct 18
Full
Oct 26
Last Quarter
Nov 3
New
Nov 9
First Quarter

Hourly Weather History & Observations

Time (CDT) Temp. Dew Point Humidity Pressure Visibility Wind Dir Wind Speed Gust Speed Precip Events Conditions
12:15 AM 62.6 °F 58.8 °F 87% 30.04 in 10.0 mi NNW 8.1 mph - N/A   Overcast
12:35 AM 62.6 °F 58.8 °F 87% 30.03 in 10.0 mi North 11.5 mph - N/A   Overcast
12:55 AM 62.6 °F 59.0 °F 88% 30.03 in 10.0 mi NNW 10.4 mph - N/A   Overcast
1:15 AM 62.6 °F 59.0 °F 88% 30.03 in 10.0 mi NNW 9.2 mph - N/A   Overcast
1:35 AM 62.6 °F 59.0 °F 88% 30.03 in 10.0 mi NNW 9.2 mph - N/A   Overcast
1:55 AM 62.6 °F 59.0 °F 88% 30.03 in 10.0 mi NNW 9.2 mph - N/A   Overcast
2:15 AM 62.6 °F 59.0 °F 88% 30.03 in 10.0 mi North 10.4 mph - N/A   Overcast
2:35 AM 62.6 °F 59.0 °F 88% 30.02 in 10.0 mi North 9.2 mph - N/A   Overcast
2:55 AM 62.6 °F 59.0 °F 88% 30.02 in 10.0 mi NNW 10.4 mph - N/A   Overcast
3:15 AM 62.6 °F 58.6 °F 87% 30.02 in 10.0 mi North 11.5 mph 16.1 mph N/A   Overcast
3:35 AM 62.6 °F 58.5 °F 86% 30.02 in 10.0 mi North 8.1 mph - N/A   Overcast
3:55 AM 62.6 °F 58.3 °F 86% 30.02 in 10.0 mi North 9.2 mph - N/A   Overcast
4:15 AM 62.2 °F 58.1 °F 86% 30.01 in 10.0 mi North 10.4 mph - N/A   Overcast
4:35 AM 62.1 °F 57.4 °F 85% 30.01 in 10.0 mi North 12.7 mph - N/A   Overcast
4:55 AM 61.9 °F 55.9 °F 81% 30.01 in 10.0 mi North 12.7 mph - N/A   Overcast
5:15 AM 61.9 °F 55.9 °F 81% 30.01 in 10.0 mi North 10.4 mph - N/A   Overcast
5:35 AM 61.7 °F 55.8 °F 81% 30.01 in 10.0 mi North 9.2 mph - N/A   Mostly Cloudy
5:55 AM 61.7 °F 55.6 °F 80% 30.02 in 10.0 mi North 10.4 mph - N/A   Overcast
6:15 AM 61.9 °F 55.4 °F 79% 30.02 in 10.0 mi North 11.5 mph - N/A   Overcast
6:35 AM 61.7 °F 55.4 °F 80% 30.02 in 10.0 mi North 12.7 mph - N/A   Overcast
6:55 AM 61.2 °F 54.7 °F 79% 30.03 in 10.0 mi North 10.4 mph - N/A   Overcast
7:15 AM 60.6 °F 54.5 °F 80% 30.03 in 10.0 mi North 10.4 mph - N/A   Scattered Clouds
7:35 AM 60.1 °F 54.5 °F 82% 30.03 in 10.0 mi North 8.1 mph - N/A   Clear
7:55 AM 60.1 °F 54.5 °F 82% 30.04 in 10.0 mi North 11.5 mph 16.1 mph N/A   Clear
8:15 AM 60.4 °F 54.5 °F 81% 30.04 in 10.0 mi North 11.5 mph 17.3 mph N/A   Clear
8:35 AM 60.8 °F 54.5 °F 80% 30.06 in 10.0 mi North 12.7 mph - N/A   Clear
8:55 AM 62.2 °F 54.3 °F 75% 30.06 in 10.0 mi North 9.2 mph - N/A   Clear
9:15 AM 63.5 °F 54.0 °F 71% 30.07 in 10.0 mi NNE 10.4 mph 18.4 mph N/A   Clear
9:35 AM 65.1 °F 54.0 °F 67% 30.08 in 10.0 mi NNE 9.2 mph - N/A   Clear
9:55 AM 65.5 °F 53.6 °F 65% 30.08 in 10.0 mi NNE 11.5 mph - N/A   Clear
10:15 AM 66.4 °F 53.4 °F 63% 30.09 in 10.0 mi North 10.4 mph - N/A   Clear
10:35 AM 67.8 °F 54.7 °F 63% 30.09 in 10.0 mi North 10.4 mph - N/A   Clear
10:55 AM 68.2 °F 54.5 °F 62% 30.09 in 10.0 mi NNE 8.1 mph - N/A   Clear
11:15 AM 69.8 °F 54.5 °F 58% 30.09 in 10.0 mi NE 9.2 mph - N/A   Clear
11:35 AM 70.3 °F 54.3 °F 57% 30.09 in 10.0 mi NNE 9.2 mph - N/A   Clear
11:55 AM 71.4 °F 54.3 °F 55% 30.08 in 10.0 mi NNE 8.1 mph - N/A   Clear
12:15 PM 72.1 °F 55.4 °F 56% 30.07 in 10.0 mi North 8.1 mph - N/A   Clear
12:35 PM 73.6 °F 54.9 °F 52% 30.06 in 10.0 mi NNE 11.5 mph - N/A   Clear
12:55 PM 72.9 °F 55.0 °F 53% 30.05 in 10.0 mi NNE 9.2 mph - N/A   Clear
1:15 PM 73.9 °F 54.7 °F 51% 30.04 in 10.0 mi NNE 11.5 mph 17.3 mph N/A   Clear
1:35 PM 75.2 °F 56.3 °F 52% 30.03 in 10.0 mi NNE 10.4 mph 17.3 mph N/A   Clear
1:55 PM 75.7 °F 56.8 °F 52% 30.02 in 10.0 mi North 8.1 mph - N/A   Clear
2:15 PM 75.9 °F 57.6 °F 53% 30.01 in 10.0 mi NE 11.5 mph 18.4 mph N/A   Clear
2:35 PM 76.1 °F 58.1 °F 54% 30.00 in 10.0 mi NE 12.7 mph - N/A   Clear
2:55 PM 76.3 °F 57.6 °F 52% 29.99 in 10.0 mi NE 9.2 mph - N/A   Clear
3:15 PM 76.8 °F 57.7 °F 52% 29.99 in 10.0 mi NNE 9.2 mph - N/A   Clear
3:35 PM 76.8 °F 57.6 °F 51% 29.99 in 10.0 mi NNE 10.4 mph - N/A   Clear
3:55 PM 76.6 °F 57.6 °F 52% 29.98 in 10.0 mi NNE 10.4 mph - N/A   Clear
4:15 PM 76.5 °F 57.6 °F 52% 29.97 in 10.0 mi NE 9.2 mph - N/A   Clear
4:35 PM 76.3 °F 57.0 °F 51% 29.97 in 10.0 mi NNE 8.1 mph - N/A   Clear
4:55 PM 76.5 °F 57.0 °F 51% 29.97 in 10.0 mi NNE 8.1 mph - N/A   Clear
5:15 PM 76.3 °F 57.4 °F 52% 29.96 in 10.0 mi NNE 8.1 mph - N/A   Clear
5:35 PM 76.1 °F 57.6 °F 53% 29.96 in 10.0 mi NNE 8.1 mph - N/A   Clear
5:55 PM 75.4 °F 57.6 °F 54% 29.97 in 10.0 mi NNE 6.9 mph - N/A   Clear
6:15 PM 74.3 °F 57.6 °F 56% 29.96 in 10.0 mi NNE 4.6 mph - N/A   Clear
6:35 PM 73.9 °F 57.7 °F 57% 29.96 in 10.0 mi NNE 5.8 mph - N/A   Clear
6:55 PM 71.8 °F 58.1 °F 62% 29.97 in 10.0 mi North 5.8 mph - N/A   Clear
7:15 PM 69.8 °F 58.3 °F 67% 29.97 in 10.0 mi NNE 5.8 mph - N/A   Clear
7:35 PM 68.5 °F 59.2 °F 72% 29.97 in 10.0 mi NNE 3.5 mph - N/A   Clear
7:55 PM 68.0 °F 58.8 °F 72% 29.98 in 10.0 mi North 5.8 mph - N/A   Clear
8:15 PM 67.1 °F 58.5 °F 74% 29.98 in 10.0 mi NNE 5.8 mph - N/A   Clear
8:35 PM 66.2 °F 58.6 °F 77% 29.98 in 10.0 mi North 5.8 mph - N/A   Clear
8:55 PM 66.0 °F 58.8 °F 78% 29.98 in 10.0 mi NNE 5.8 mph - N/A   Clear
9:15 PM 65.3 °F 58.5 °F 78% 29.99 in 10.0 mi NNE 4.6 mph - N/A   Clear
9:35 PM 64.9 °F 58.5 °F 79% 29.99 in 10.0 mi NNE 5.8 mph - N/A   Clear
9:55 PM 64.2 °F 58.1 °F 80% 29.99 in 10.0 mi North 5.8 mph - N/A   Clear
10:15 PM 64.9 °F 58.1 °F 78% 29.99 in 10.0 mi NNE 3.5 mph - N/A   Clear
10:35 PM 64.6 °F 58.3 °F 80% 29.99 in 10.0 mi Calm Calm - N/A   Clear
10:55 PM 64.8 °F 58.1 °F 79% 29.99 in 10.0 mi North 4.6 mph - N/A   Clear
11:15 PM 63.0 °F 57.4 °F 82% 29.99 in 10.0 mi NNE 4.6 mph - N/A   Clear
11:35 PM 63.3 °F 57.6 °F 81% 29.99 in 10.0 mi North 4.6 mph - N/A   Clear
11:55 PM 63.5 °F 57.4 °F 80% 29.98 in 10.0 mi North 3.5 mph - N/A   Clear